Time;durP1;ratioP1;P1;durP2;ratioP2;P2;SDS_P1;SDS_P2;PMS_P1;PMS_P2;Temp;Humidity;BMP_temperature;BMP_pressure;BME280_temperature;BME280_humidity;BME280_pressure;Samples;Min_cycle;Max_cycle;Signal;HPM_P1;HPM_P2
2021/06/22 00:02:21;;;;;;;3.83;3.30;;;17.40;99.90;;;;;;5015934;28;20056;-85
2021/06/22 00:04:48;;;;;;;3.38;3.08;;;17.40;99.90;;;;;;5015916;28;20048;-85
2021/06/22 00:07:19;;;;;;;2.85;2.67;;;17.40;99.90;;;;;;5014984;28;20512;-85
2021/06/22 00:09:47;;;;;;;3.58;2.53;;;17.40;99.90;;;;;;5032783;28;20054;-86
2021/06/22 00:12:14;;;;;;;3.08;2.88;;;17.40;99.90;;;;;;5032714;28;20501;-86
2021/06/22 00:14:43;;;;;;;2.60;2.40;;;17.40;99.90;;;;;;5015684;28;20141;-85
2021/06/22 00:17:10;;;;;;;2.40;2.30;;;17.40;99.90;;;;;;5032986;28;20049;-86
2021/06/22 00:19:37;;;;;;;2.58;2.35;;;17.40;99.90;;;;;;5015538;28;20045;-85
2021/06/22 00:22:04;;;;;;;2.75;2.47;;;17.40;99.90;;;;;;5032614;28;20140;-85
2021/06/22 00:24:31;;;;;;;2.90;2.60;;;17.40;99.90;;;;;;5015147;28;20049;-86
2021/06/22 00:26:58;;;;;;;3.47;2.38;;;17.40;99.90;;;;;;5032704;28;20045;-85
2021/06/22 00:29:26;;;;;;;3.15;2.55;;;17.50;99.90;;;;;;5032427;28;20140;-85
2021/06/22 00:31:52;;;;;;;3.28;2.50;;;17.40;99.90;;;;;;5015429;28;20498;-84
2021/06/22 00:34:19;;;;;;;3.08;2.88;;;17.40;99.90;;;;;;5015265;28;20103;-85
2021/06/22 00:36:46;;;;;;;2.75;2.53;;;17.30;99.90;;;;;;5018467;28;20049;-84
2021/06/22 00:39:13;;;;;;;2.53;2.30;;;17.40;99.90;;;;;;5019870;28;20081;-84
2021/06/22 00:41:39;;;;;;;2.47;2.28;;;17.40;99.90;;;;;;5037158;28;20573;-83
2021/06/22 00:44:08;;;;;;;2.05;1.90;;;17.40;99.90;;;;;;5036447;28;20324;-85
2021/06/22 00:46:36;;;;;;;2.60;2.40;;;17.40;99.90;;;;;;5019010;28;20057;-85
2021/06/22 00:49:04;;;;;;;2.30;2.10;;;17.50;99.90;;;;;;5018455;28;20049;-84
2021/06/22 00:51:30;;;;;;;2.10;2.00;;;17.40;99.90;;;;;;5018115;28;20061;-85
2021/06/22 00:53:58;;;;;;;2.55;1.90;;;17.30;99.90;;;;;;5036047;28;20059;-85
2021/06/22 00:56:25;;;;;;;2.13;1.92;;;17.20;99.90;;;;;;5035950;28;20137;-85
2021/06/22 00:58:52;;;;;;;1.45;1.40;;;17.20;99.90;;;;;;5036171;28;20056;-84
2021/06/22 01:01:19;;;;;;;2.03;1.50;;;17.20;99.90;;;;;;5035742;28;20052;-84
2021/06/22 01:03:45;;;;;;;1.38;1.23;;;17.10;99.90;;;;;;5018298;28;20088;-86
2021/06/22 01:06:12;;;;;;;1.40;1.40;;;17.00;99.90;;;;;;5035459;28;20124;-85
2021/06/22 01:08:40;;;;;;;1.20;1.20;;;17.00;99.90;;;;;;5035695;28;20483;-85
2021/06/22 01:11:07;;;;;;;1.58;1.48;;;16.90;99.90;;;;;;5018018;28;20068;-85
2021/06/22 01:13:34;;;;;;;1.40;1.40;;;16.90;99.90;;;;;;5018164;28;20407;-84
2021/06/22 01:16:00;;;;;;;1.70;1.40;;;16.90;99.90;;;;;;5035354;28;20057;-85
2021/06/22 01:18:27;;;;;;;1.50;1.40;;;16.80;99.90;;;;;;5035738;28;20055;-85
2021/06/22 01:20:56;;;;;;;1.10;1.10;;;16.70;99.90;;;;;;5017923;28;20049;-84
2021/06/22 01:23:23;;;;;;;1.20;1.20;;;16.60;99.90;;;;;;5018000;28;20552;-84
2021/06/22 01:25:50;;;;;;;1.30;1.30;;;16.60;99.90;;;;;;5018030;28;20045;-85
2021/06/22 01:28:17;;;;;;;1.30;1.30;;;16.60;99.90;;;;;;5018484;28;20049;-84
2021/06/22 01:30:43;;;;;;;1.40;1.30;;;16.60;99.90;;;;;;5035020;28;20414;-84
2021/06/22 01:33:10;;;;;;;1.85;1.45;;;16.70;99.90;;;;;;5034825;28;20049;-84
2021/06/22 01:35:37;;;;;;;1.17;1.08;;;16.70;99.90;;;;;;5035281;28;20056;-85
2021/06/22 01:38:08;;;;;;;1.13;1.10;;;16.60;99.90;;;;;;5017543;28;20061;-84
2021/06/22 01:40:47;;;;;;;1.95;1.30;;;16.60;99.90;;;;;;5035114;28;20049;-85
2021/06/22 01:43:14;;;;;;;1.13;1.13;;;16.60;99.90;;;;;;5035337;28;20049;-84
2021/06/22 01:45:41;;;;;;;0.90;0.75;;;16.60;99.90;;;;;;5017680;28;20107;-84
2021/06/22 01:48:08;;;;;;;0.90;0.90;;;16.60;99.90;;;;;;5016475;28;20050;-85
2021/06/22 01:50:35;;;;;;;1.42;1.00;;;16.70;99.90;;;;;;5017847;28;20402;-85
2021/06/22 01:53:01;;;;;;;0.93;0.85;;;16.80;99.90;;;;;;5035026;28;20486;-85
2021/06/22 01:55:42;;;;;;;0.80;0.80;;;16.70;99.90;;;;;;5017666;28;20059;-85
2021/06/22 01:58:11;;;;;;;0.70;0.70;;;16.70;99.90;;;;;;5018609;28;20041;-84
2021/06/22 02:00:40;;;;;;;0.75;0.75;;;16.60;99.90;;;;;;5036924;28;20168;-91
2021/06/22 02:03:12;;;;;;;0.80;0.80;;;16.60;99.90;;;;;;5034495;28;20056;-84
2021/06/22 02:05:39;;;;;;;0.80;0.80;;;16.60;99.90;;;;;;5017236;28;20482;-84
2021/06/22 02:08:06;;;;;;;0.70;0.70;;;16.50;99.90;;;;;;5017318;28;20532;-85
2021/06/22 02:10:32;;;;;;;1.67;1.20;;;16.60;99.90;;;;;;5034811;28;20053;-84
2021/06/22 02:12:59;;;;;;;1.85;1.00;;;16.50;99.90;;;;;;5034512;28;20053;-85
2021/06/22 02:15:26;;;;;;;0.68;0.68;;;16.60;99.90;;;;;;5034461;28;20111;-85
2021/06/22 02:17:53;;;;;;;2.13;0.85;;;16.60;99.90;;;;;;5034597;28;20049;-84
2021/06/22 02:20:20;;;;;;;1.48;1.10;;;16.60;99.90;;;;;;5017279;28;20096;-85
2021/06/22 02:22:47;;;;;;;1.45;1.00;;;16.50;99.90;;;;;;5016778;28;20060;-84
2021/06/22 02:25:15;;;;;;;3.60;1.00;;;16.50;99.90;;;;;;5034196;28;20137;-84
2021/06/22 02:27:42;;;;;;;0.70;0.70;;;16.50;99.90;;;;;;5034387;28;20140;-84
2021/06/22 02:30:12;;;;;;;1.73;0.80;;;16.50;99.90;;;;;;5034199;28;20045;-83
2021/06/22 02:32:40;;;;;;;1.10;0.85;;;16.50;99.90;;;;;;5034136;28;20056;-85
2021/06/22 02:35:09;;;;;;;1.33;0.80;;;16.50;99.90;;;;;;5016614;28;20049;-84
2021/06/22 02:37:37;;;;;;;1.05;0.98;;;16.60;99.90;;;;;;5016564;28;20081;-84
2021/06/22 02:40:06;;;;;;;0.90;0.90;;;16.60;99.90;;;;;;5016494;28;20140;-85
2021/06/22 02:42:33;;;;;;;1.33;1.25;;;16.60;99.90;;;;;;5016614;28;20055;-84
2021/06/22 02:45:00;;;;;;;1.05;1.02;;;16.60;99.90;;;;;;5016474;28;20045;-84
2021/06/22 02:47:27;;;;;;;1.90;1.10;;;16.50;99.90;;;;;;5016299;28;20060;-85
2021/06/22 02:49:54;;;;;;;1.90;0.70;;;16.60;99.90;;;;;;5016479;28;20089;-84
2021/06/22 02:52:21;;;;;;;0.90;0.90;;;16.60;99.90;;;;;;5033835;28;20422;-84
2021/06/22 02:54:47;;;;;;;1.02;0.93;;;16.60;99.90;;;;;;5016244;28;20513;-85
2021/06/22 02:57:14;;;;;;;1.58;1.08;;;16.60;99.90;;;;;;5033906;28;20405;-85
2021/06/22 02:59:41;;;;;;;0.95;0.90;;;16.60;99.90;;;;;;5015908;28;20082;-85
2021/06/22 03:02:08;;;;;;;1.13;1.00;;;16.60;99.90;;;;;;5015977;28;20512;-84
2021/06/22 03:04:35;;;;;;;3.83;1.30;;;16.60;99.90;;;;;;5016301;28;20132;-85
2021/06/22 03:07:03;;;;;;;1.75;1.20;;;16.60;99.90;;;;;;5016093;28;20144;-85
2021/06/22 03:09:30;;;;;;;1.48;0.90;;;16.60;99.90;;;;;;5016262;28;20046;-85
2021/06/22 03:11:57;;;;;;;0.70;0.70;;;16.60;99.90;;;;;;5033686;28;20053;-84
2021/06/22 03:14:24;;;;;;;1.40;0.75;;;16.40;99.90;;;;;;5033620;28;20049;-85
2021/06/22 03:16:51;;;;;;;0.75;0.75;;;16.30;99.90;;;;;;5034201;28;20526;-85
2021/06/22 03:19:19;;;;;;;0.70;0.70;;;16.40;99.90;;;;;;5034370;28;20053;-85
2021/06/22 03:21:47;;;;;;;1.58;0.80;;;16.50;99.90;;;;;;5016020;28;20457;-84
2021/06/22 03:24:15;;;;;;;1.15;0.98;;;16.50;99.90;;;;;;5015925;28;20041;-85
2021/06/22 03:26:44;;;;;;;1.02;1.02;;;16.50;99.90;;;;;;5033218;28;20055;-84
2021/06/22 03:29:11;;;;;;;2.88;1.13;;;16.50;99.90;;;;;;5015907;28;20041;-84
2021/06/22 03:31:38;;;;;;;1.30;1.00;;;16.40;99.90;;;;;;5015864;28;20053;-85
2021/06/22 03:34:05;;;;;;;1.05;1.00;;;16.50;99.90;;;;;;5015720;28;20057;-84
2021/06/22 03:36:32;;;;;;;0.90;0.90;;;16.50;99.90;;;;;;5033419;28;20052;-84
2021/06/22 03:38:59;;;;;;;1.00;1.00;;;16.50;99.90;;;;;;5015932;28;20088;-84
2021/06/22 03:41:26;;;;;;;3.90;1.20;;;16.50;99.90;;;;;;5015510;28;20049;-84
2021/06/22 03:43:55;;;;;;;1.05;0.98;;;16.60;99.90;;;;;;5015734;28;20063;-85
2021/06/22 03:46:22;;;;;;;0.98;0.98;;;16.60;99.90;;;;;;5015698;28;20088;-85
2021/06/22 03:48:49;;;;;;;1.45;0.93;;;16.60;99.90;;;;;;5032997;28;20068;-84
2021/06/22 03:51:16;;;;;;;1.20;1.20;;;16.70;99.90;;;;;;5015863;28;20068;-84
2021/06/22 03:53:43;;;;;;;3.28;1.30;;;16.80;99.90;;;;;;5015534;28;20422;-85
2021/06/22 03:56:10;;;;;;;1.10;1.00;;;16.70;99.90;;;;;;5032893;28;20084;-84
2021/06/22 03:58:37;;;;;;;1.25;1.20;;;16.70;99.90;;;;;;5015677;28;20128;-84
2021/06/22 04:01:04;;;;;;;1.52;1.20;;;16.60;99.90;;;;;;5032819;28;20046;-85
2021/06/22 04:03:32;;;;;;;1.27;1.27;;;16.40;99.90;;;;;;5033066;28;20123;-85
2021/06/22 04:05:59;;;;;;;2.70;1.40;;;16.30;99.90;;;;;;5015327;28;20046;-84
2021/06/22 04:08:26;;;;;;;1.80;1.40;;;16.30;99.90;;;;;;5015366;28;20049;-85
2021/06/22 04:10:53;;;;;;;1.02;1.00;;;16.30;99.90;;;;;;5021675;28;20498;-85
2021/06/22 04:13:21;;;;;;;1.05;0.80;;;16.40;99.90;;;;;;5019150;28;20042;-85
2021/06/22 04:15:47;;;;;;;0.90;0.90;;;16.40;99.90;;;;;;5019201;28;20049;-85
2021/06/22 04:18:14;;;;;;;1.17;1.00;;;16.50;99.90;;;;;;5036634;28;20049;-84
2021/06/22 04:20:41;;;;;;;1.13;1.00;;;16.50;99.90;;;;;;5036480;28;20059;-84
2021/06/22 04:23:07;;;;;;;1.77;1.25;;;16.60;99.90;;;;;;5019164;28;20414;-84
2021/06/22 04:25:35;;;;;;;1.60;1.40;;;16.60;99.90;;;;;;5036617;28;20046;-85
2021/06/22 04:28:03;;;;;;;1.70;1.60;;;16.50;99.90;;;;;;5019108;28;20491;-85
2021/06/22 04:30:32;;;;;;;2.30;1.20;;;16.50;99.90;;;;;;5019626;28;20131;-85
2021/06/22 04:32:59;;;;;;;1.38;1.13;;;16.50;99.90;;;;;;5036763;28;20077;-84
2021/06/22 04:35:28;;;;;;;1.20;1.20;;;16.50;99.90;;;;;;5020159;28;20474;-83
2021/06/22 04:37:58;;;;;;;1.00;1.00;;;16.50;99.90;;;;;;5021080;28;20081;-84
2021/06/22 04:40:26;;;;;;;0.85;0.85;;;16.50;99.90;;;;;;5031566;28;20383;-84
2021/06/22 04:42:53;;;;;;;1.08;1.08;;;16.50;99.90;;;;;;5018669;28;20123;-85
2021/06/22 04:45:20;;;;;;;1.08;1.08;;;16.60;99.90;;;;;;5036149;28;20140;-84
2021/06/22 04:47:48;;;;;;;3.72;1.10;;;16.70;99.90;;;;;;5018624;28;20065;-85
2021/06/22 04:50:15;;;;;;;1.10;1.10;;;16.70;99.90;;;;;;5018704;28;20049;-85
2021/06/22 04:52:42;;;;;;;3.58;1.40;;;16.70;99.90;;;;;;5036239;28;20042;-84
2021/06/22 04:55:12;;;;;;;2.97;1.35;;;16.60;99.90;;;;;;5018262;28;20045;-86
2021/06/22 04:57:44;;;;;;;2.75;1.27;;;16.60;99.90;;;;;;5018562;28;20092;-84
2021/06/22 05:00:13;;;;;;;1.02;1.00;;;16.70;99.90;;;;;;5018462;28;20048;-86
2021/06/22 05:02:41;;;;;;;2.17;1.15;;;16.60;99.90;;;;;;5036591;28;20417;-86
2021/06/22 05:05:09;;;;;;;3.45;1.60;;;16.60;99.90;;;;;;5018251;28;20375;-86
2021/06/22 05:07:37;;;;;;;1.50;1.50;;;16.60;99.90;;;;;;5018366;28;20421;-85
2021/06/22 05:10:04;;;;;;;2.05;1.40;;;16.50;99.90;;;;;;5035566;28;20053;-84
2021/06/22 05:12:31;;;;;;;1.30;1.20;;;16.50;99.90;;;;;;5017928;28;20053;-84
2021/06/22 05:14:58;;;;;;;2.45;1.20;;;16.40;99.90;;;;;;5018105;28;20107;-85
2021/06/22 05:17:25;;;;;;;3.35;1.30;;;16.30;99.90;;;;;;5035579;28;20461;-85
2021/06/22 05:19:52;;;;;;;1.40;1.30;;;16.40;99.90;;;;;;5018286;28;20128;-85
2021/06/22 05:22:19;;;;;;;1.08;0.77;;;16.30;99.90;;;;;;5035432;28;20072;-84
2021/06/22 05:24:45;;;;;;;0.95;0.95;;;16.20;99.90;;;;;;5017984;28;20049;-88
2021/06/22 05:27:13;;;;;;;1.55;1.30;;;16.30;99.90;;;;;;5017582;28;20053;-84
2021/06/22 05:29:40;;;;;;;1.10;0.90;;;16.40;99.90;;;;;;5017960;28;20128;-85
2021/06/22 05:32:08;;;;;;;1.55;1.20;;;16.50;99.90;;;;;;5017952;28;20084;-85
2021/06/22 05:34:35;;;;;;;1.15;1.00;;;16.50;99.90;;;;;;5035107;28;20137;-85
2021/06/22 05:37:02;;;;;;;1.65;0.85;;;16.60;99.90;;;;;;5035096;28;20061;-85
2021/06/22 05:39:29;;;;;;;1.10;0.90;;;16.70;99.90;;;;;;5035145;28;20505;-85
2021/06/22 05:41:56;;;;;;;0.98;0.93;;;16.60;99.90;;;;;;5035246;28;20136;-85
2021/06/22 05:44:23;;;;;;;2.58;1.00;;;16.60;99.90;;;;;;5017761;28;20066;-85
2021/06/22 05:46:50;;;;;;;0.80;0.80;;;16.70;99.90;;;;;;5035117;28;20050;-85
2021/06/22 05:49:17;;;;;;;1.27;1.27;;;16.70;99.90;;;;;;5017108;28;20421;-84
2021/06/22 05:51:45;;;;;;;1.40;1.30;;;16.80;99.90;;;;;;5034942;28;20132;-85
2021/06/22 05:54:12;;;;;;;4.57;1.58;;;16.70;99.90;;;;;;5016255;28;20129;-85
2021/06/22 05:56:39;;;;;;;2.13;1.30;;;16.70;99.90;;;;;;5018570;28;20060;-85
2021/06/22 05:59:06;;;;;;;1.80;0.82;;;16.70;99.90;;;;;;5035043;28;20129;-85
2021/06/22 06:01:33;;;;;;;1.45;1.02;;;16.80;99.90;;;;;;5034316;28;20502;-85
2021/06/22 06:04:00;;;;;;;1.42;1.33;;;16.80;99.90;;;;;;5017080;28;20050;-85
2021/06/22 06:06:27;;;;;;;2.47;1.10;;;16.80;99.90;;;;;;5033469;28;20056;-84
2021/06/22 06:08:53;;;;;;;1.02;0.90;;;16.80;99.90;;;;;;5016463;28;20099;-84
2021/06/22 06:11:20;;;;;;;1.23;1.23;;;16.80;99.90;;;;;;5008106;28;20056;-84
2021/06/22 06:13:47;;;;;;;0.90;0.90;;;16.60;99.90;;;;;;5014343;28;20053;-86
2021/06/22 06:16:13;;;;;;;3.03;1.38;;;16.70;99.90;;;;;;5014279;28;20060;-85
2021/06/22 06:18:40;;;;;;;1.10;1.10;;;16.50;99.90;;;;;;4997350;28;20057;-84
2021/06/22 06:21:07;;;;;;;2.00;1.38;;;16.50;99.90;;;;;;5014113;28;20056;-85
2021/06/22 06:23:42;;;;;;;1.02;1.00;;;16.60;99.90;;;;;;5013892;28;20050;-84
2021/06/22 06:26:12;;;;;;;2.03;1.30;;;16.70;99.90;;;;;;4996832;28;20160;-85
2021/06/22 06:28:51;;;;;;;1.13;1.10;;;16.60;99.90;;;;;;4996746;28;20053;-84
2021/06/22 06:31:19;;;;;;;0.85;0.85;;;16.70;99.90;;;;;;5013643;28;20052;-84
2021/06/22 06:33:46;;;;;;;0.80;0.80;;;16.80;99.90;;;;;;5013425;28;20487;-84
2021/06/22 06:36:13;;;;;;;1.10;1.10;;;16.90;99.90;;;;;;5013613;28;20054;-84
2021/06/22 06:38:40;;;;;;;0.85;0.85;;;17.00;99.90;;;;;;5014113;28;20057;-84
2021/06/22 06:41:07;;;;;;;0.88;0.70;;;16.90;99.90;;;;;;4996398;28;20050;-84
2021/06/22 06:43:34;;;;;;;4.95;4.70;;;16.90;99.90;;;;;;4995955;28;20049;-85
2021/06/22 06:46:01;;;;;;;0.80;0.80;;;16.80;99.90;;;;;;4996112;28;20383;-84
2021/06/22 06:48:28;;;;;;;0.80;0.80;;;16.90;99.90;;;;;;4995824;28;20054;-86
2021/06/22 06:50:55;;;;;;;0.93;0.90;;;17.00;99.90;;;;;;4996300;28;20050;-84
2021/06/22 06:53:22;;;;;;;1.95;0.80;;;17.10;99.90;;;;;;4996163;28;20060;-83
2021/06/22 06:55:49;;;;;;;0.70;0.70;;;17.40;99.90;;;;;;4996246;28;20045;-83
2021/06/22 06:58:16;;;;;;;1.00;0.90;;;17.60;99.90;;;;;;5013457;28;20534;-83
2021/06/22 07:00:43;;;;;;;1.35;0.80;;;17.80;99.90;;;;;;4996327;28;20057;-83
2021/06/22 07:03:10;;;;;;;2.60;1.02;;;17.70;99.90;;;;;;5012973;28;20137;-84
2021/06/22 07:05:37;;;;;;;0.90;0.60;;;17.90;99.90;;;;;;5013156;28;20050;-84
2021/06/22 07:08:04;;;;;;;1.58;0.80;;;18.00;99.90;;;;;;4995740;28;20080;-84
2021/06/22 07:10:32;;;;;;;3.65;1.10;;;17.90;99.90;;;;;;5013413;28;20061;-84
2021/06/22 07:13:03;;;;;;;0.80;0.80;;;17.60;99.90;;;;;;4995891;28;20046;-84
2021/06/22 07:15:31;;;;;;;1.25;1.15;;;17.50;99.90;;;;;;5014307;28;20049;-83
2021/06/22 07:17:58;;;;;;;0.80;0.80;;;17.40;99.90;;;;;;4995822;28;20054;-83
2021/06/22 07:20:25;;;;;;;1.70;1.17;;;17.50;99.90;;;;;;4995464;28;20426;-84
2021/06/22 07:22:52;;;;;;;6.18;1.55;;;17.50;99.90;;;;;;4995496;28;20058;-84
2021/06/22 07:25:20;;;;;;;1.17;0.90;;;17.50;99.90;;;;;;5012434;28;20049;-84
2021/06/22 07:27:48;;;;;;;2.65;0.90;;;17.60;99.90;;;;;;4995574;28;20050;-83
2021/06/22 07:30:16;;;;;;;0.90;0.90;;;17.80;99.90;;;;;;5012641;28;20049;-84
2021/06/22 07:32:43;;;;;;;0.73;0.73;;;17.90;99.90;;;;;;4995432;28;20046;-83
2021/06/22 07:35:11;;;;;;;1.10;1.10;;;18.10;99.90;;;;;;4995192;28;20429;-83
2021/06/22 07:37:40;;;;;;;0.73;0.73;;;18.10;99.90;;;;;;5013023;28;20069;-84
2021/06/22 07:40:08;;;;;;;2.10;2.00;;;18.00;99.90;;;;;;4995326;28;20104;-84
2021/06/22 07:42:36;;;;;;;0.98;0.98;;;18.00;99.90;;;;;;4994996;28;20054;-83
2021/06/22 07:45:04;;;;;;;1.75;0.90;;;17.80;99.90;;;;;;5012043;28;20133;-83
2021/06/22 07:47:31;;;;;;;2.25;1.35;;;17.80;99.90;;;;;;4995122;28;20077;-84
2021/06/22 07:49:58;;;;;;;2.97;1.00;;;17.70;99.90;;;;;;4994733;28;20107;-84
2021/06/22 07:52:25;;;;;;;1.10;1.05;;;17.80;99.90;;;;;;5012625;28;20125;-83
2021/06/22 07:54:52;;;;;;;0.90;0.90;;;17.80;99.90;;;;;;4995378;28;20196;-84
2021/06/22 07:57:19;;;;;;;0.80;0.80;;;17.70;99.90;;;;;;4994792;28;20384;-84
2021/06/22 07:59:45;;;;;;;1.27;1.27;;;17.60;99.90;;;;;;4995340;28;20054;-85
2021/06/22 08:02:12;;;;;;;1.38;1.10;;;17.50;99.90;;;;;;4994803;28;20052;-84
2021/06/22 08:04:39;;;;;;;1.77;1.00;;;17.30;99.90;;;;;;4994485;28;20088;-84
2021/06/22 08:07:05;;;;;;;1.75;1.38;;;17.40;99.90;;;;;;5012356;28;20046;-84
2021/06/22 08:09:33;;;;;;;1.20;1.20;;;17.50;99.90;;;;;;4994884;28;20505;-84
2021/06/22 08:12:00;;;;;;;2.58;1.00;;;17.80;99.90;;;;;;4994877;28;20061;-83
2021/06/22 08:14:27;;;;;;;1.50;1.40;;;17.80;99.90;;;;;;4995062;28;20052;-83
2021/06/22 08:16:54;;;;;;;1.20;1.10;;;17.60;99.90;;;;;;4994868;28;20054;-84
2021/06/22 08:19:21;;;;;;;0.98;0.98;;;17.60;99.90;;;;;;5012236;28;20596;-84
2021/06/22 08:21:47;;;;;;;2.90;1.00;;;17.70;99.90;;;;;;4994641;28;20045;-85
2021/06/22 08:24:14;;;;;;;1.17;1.00;;;17.70;99.90;;;;;;4994555;28;20064;-83
2021/06/22 08:26:41;;;;;;;1.42;1.20;;;17.80;99.90;;;;;;4994651;28;20046;-85
2021/06/22 08:29:07;;;;;;;1.58;1.48;;;17.80;99.90;;;;;;4994998;28;20085;-84
2021/06/22 08:31:34;;;;;;;2.58;1.00;;;17.70;99.90;;;;;;5012119;28;20085;-83
2021/06/22 08:34:01;;;;;;;2.05;1.52;;;17.80;99.90;;;;;;5013342;28;20054;-83
2021/06/22 08:36:28;;;;;;;1.65;1.55;;;17.90;99.90;;;;;;4996243;28;20085;-84
2021/06/22 08:38:54;;;;;;;3.53;1.20;;;18.00;99.90;;;;;;5011945;28;20050;-83
2021/06/22 08:41:25;;;;;;;0.90;0.90;;;17.70;99.90;;;;;;5012013;28;20152;-84
2021/06/22 08:43:55;;;;;;;1.60;1.50;;;17.60;99.90;;;;;;4995166;28;20141;-82
2021/06/22 08:46:22;;;;;;;2.45;1.30;;;17.50;99.90;;;;;;4994655;28;20049;-83
2021/06/22 08:48:50;;;;;;;1.13;1.00;;;17.40;99.90;;;;;;4994287;28;20073;-83
2021/06/22 08:51:36;;;;;;;1.98;1.40;;;17.40;99.90;;;;;;5010834;28;20058;-83
2021/06/22 08:54:05;;;;;;;1.40;1.30;;;17.50;99.90;;;;;;4994618;28;20121;-83
2021/06/22 08:56:33;;;;;;;1.95;0.90;;;17.70;99.90;;;;;;4979876;28;20050;-85
2021/06/22 08:58:59;;;;;;;0.85;0.85;;;17.80;99.90;;;;;;5015342;28;20466;-84
2021/06/22 09:01:26;;;;;;;1.10;1.00;;;17.90;99.90;;;;;;4997935;28;20511;-85
2021/06/22 09:03:53;;;;;;;0.98;0.98;;;18.00;99.90;;;;;;4997827;28;20049;-83
2021/06/22 09:06:25;;;;;;;1.65;0.77;;;18.20;99.90;;;;;;5015008;28;20050;-83
2021/06/22 09:08:55;;;;;;;0.70;0.70;;;18.20;99.90;;;;;;4997987;28;20050;-82
2021/06/22 09:11:23;;;;;;;2.42;1.08;;;18.30;99.90;;;;;;5015187;28;20064;-83
2021/06/22 09:13:58;;;;;;;2.30;1.13;;;18.20;99.90;;;;;;4997814;28;20046;-83
2021/06/22 09:16:25;;;;;;;1.85;0.82;;;18.30;99.90;;;;;;5014785;28;20054;-82
2021/06/22 09:18:59;;;;;;;0.75;0.75;;;18.30;99.90;;;;;;4997913;28;20050;-83
2021/06/22 09:21:26;;;;;;;;;;;18.40;99.90;;;;;;5015285;28;20050;-83
2021/06/22 09:23:55;;;;;;;1.23;1.15;;;18.60;99.90;;;;;;4997484;28;19922;-83
2021/06/22 09:26:24;;;;;;;0.88;0.88;;;18.70;99.90;;;;;;4997343;28;20390;-83
2021/06/22 09:28:52;;;;;;;1.08;0.98;;;18.90;99.90;;;;;;5014844;28;20054;-83
2021/06/22 09:31:21;;;;;;;1.58;1.00;;;19.10;99.90;;;;;;4997276;28;20050;-83
2021/06/22 09:33:52;;;;;;;3.53;0.90;;;19.00;99.90;;;;;;4997557;28;20046;-82
2021/06/22 09:36:28;;;;;;;2.17;0.65;;;19.10;99.90;;;;;;4997181;28;20767;-83
2021/06/22 09:38:57;;;;;;;2.95;0.70;;;19.40;99.90;;;;;;4997414;28;20064;-83
2021/06/22 09:41:26;;;;;;;1.23;0.90;;;19.50;99.90;;;;;;4997224;28;20050;-83
2021/06/22 09:44:07;;;;;;;3.60;0.80;;;19.50;99.90;;;;;;4997636;28;20053;-87
2021/06/22 09:46:39;;;;;;;0.90;0.90;;;19.20;99.90;;;;;;4996958;28;20141;-83
2021/06/22 09:49:08;;;;;;;2.35;1.00;;;19.10;99.90;;;;;;4985711;28;20054;-83
2021/06/22 09:51:40;;;;;;;0.80;0.80;;;19.20;99.90;;;;;;4977945;28;20085;-82
2021/06/22 09:54:09;;;;;;;0.90;0.90;;;19.30;99.90;;;;;;4978471;28;20112;-83
2021/06/22 09:56:36;;;;;;;1.45;1.35;;;19.60;99.90;;;;;;4977842;28;20141;-83
2021/06/22 09:59:07;;;;;;;1.20;1.10;;;19.70;99.90;;;;;;4995126;28;20046;-83
2021/06/22 10:01:36;;;;;;;0.80;0.80;;;19.90;99.90;;;;;;4977698;28;20060;-83
2021/06/22 10:04:24;;;;;;;0.88;0.75;;;20.10;99.90;;;;;;4994443;28;20051;-83
2021/06/22 10:06:57;;;;;;;0.88;0.88;;;20.30;99.90;;;;;;4977407;28;20058;-83
2021/06/22 10:09:29;;;;;;;0.98;0.98;;;20.50;99.90;;;;;;4976843;28;20105;-84
2021/06/22 10:12:06;;;;;;;2.05;0.82;;;20.60;99.90;;;;;;4977665;28;20054;-83
2021/06/22 10:14:36;;;;;;;1.70;0.90;;;20.20;99.90;;;;;;4977490;28;20097;-83
2021/06/22 10:17:06;;;;;;;1.50;1.40;;;20.40;99.90;;;;;;4977138;28;20078;-83
2021/06/22 10:19:34;;;;;;;1.10;1.00;;;20.60;99.90;;;;;;4977283;28;20487;-83
2021/06/22 10:22:02;;;;;;;1.42;0.98;;;20.60;99.90;;;;;;4977386;28;20074;-83
2021/06/22 10:24:29;;;;;;;1.30;1.20;;;20.60;99.90;;;;;;4977272;28;20410;-83
2021/06/22 10:26:59;;;;;;;0.85;0.85;;;20.70;99.90;;;;;;4977151;28;20046;-82
2021/06/22 10:29:30;;;;;;;1.23;1.13;;;20.70;99.90;;;;;;4977241;28;20054;-83
2021/06/22 10:31:59;;;;;;;2.03;1.17;;;20.60;99.90;;;;;;4976928;28;20422;-83
2021/06/22 10:34:27;;;;;;;1.27;1.17;;;20.60;99.90;;;;;;4994288;28;20483;-83
2021/06/22 10:36:55;;;;;;;5.18;1.00;;;20.60;99.90;;;;;;4977090;28;20436;-84
2021/06/22 10:39:33;;;;;;;0.82;0.80;;;20.40;99.90;;;;;;4994273;28;20081;-83
2021/06/22 10:42:07;;;;;;;1.85;1.13;;;20.40;99.90;;;;;;4976843;28;20058;-84
2021/06/22 10:44:36;;;;;;;1.55;1.00;;;20.10;99.90;;;;;;4976982;28;20054;-83
2021/06/22 10:47:26;;;;;;;1.25;1.13;;;20.20;99.90;;;;;;4976920;28;20050;-84
2021/06/22 10:50:22;;;;;;;1.38;0.93;;;20.00;99.90;;;;;;4976874;28;20062;-83
2021/06/22 10:52:51;;;;;;;1.00;1.00;;;20.30;99.90;;;;;;4976798;28;20046;-83
2021/06/22 10:55:23;;;;;;;0.98;0.98;;;20.90;99.90;;;;;;4993682;28;20491;-83
2021/06/22 10:58:06;;;;;;;2.85;1.13;;;20.90;99.90;;;;;;4976899;28;20054;-88
2021/06/22 11:00:39;;;;;;;1.45;1.35;;;20.90;99.90;;;;;;4976607;28;20129;-83
2021/06/22 11:03:31;;;;;;;2.63;1.40;;;20.60;99.90;;;;;;4976480;28;20410;-84
2021/06/22 11:06:13;;;;;;;1.40;1.40;;;20.30;99.90;;;;;;4976495;28;20054;-83
2021/06/22 11:08:42;;;;;;;2.08;1.23;;;20.50;99.90;;;;;;4993853;28;20065;-83
2021/06/22 11:11:09;;;;;;;1.17;1.08;;;20.70;99.90;;;;;;4976984;28;20050;-83
2021/06/22 11:13:42;;;;;;;2.38;1.33;;;20.90;99.90;;;;;;4977547;28;20145;-86
2021/06/22 11:16:22;;;;;;;1.40;1.30;;;20.80;99.90;;;;;;4976382;28;20505;-83
2021/06/22 11:21:25;;;;;;;1.40;1.30;;;20.90;99.90;;;;;;4993444;28;20050;-83
2021/06/22 11:24:24;;;;;;;1.20;1.20;;;20.80;99.90;;;;;;4976564;28;20097;-83
2021/06/22 11:26:53;;;;;;;1.67;1.20;;;20.90;99.90;;;;;;4975549;28;20057;-83
2021/06/22 11:29:27;;;;;;;2.00;1.42;;;21.00;99.90;;;;;;4976039;28;20050;-84
2021/06/22 11:32:00;;;;;;;2.15;1.10;;;21.20;99.90;;;;;;4976088;28;20065;-84
2021/06/22 11:34:50;;;;;;;1.30;1.25;;;21.60;99.90;;;;;;4992867;28;20053;-84
2021/06/22 11:37:18;;;;;;;2.15;1.35;;;21.20;99.90;;;;;;4991767;28;20521;-83
2021/06/22 11:40:21;;;;;;;1.80;1.30;;;21.30;99.90;;;;;;4975909;28;20050;-83
2021/06/22 11:43:06;;;;;;;1.35;1.30;;;21.50;99.90;;;;;;4992969;28;20052;-83
2021/06/22 11:45:34;;;;;;;1.30;1.20;;;21.30;99.90;;;;;;4975694;28;20136;-84
2021/06/22 11:48:02;;;;;;;1.50;1.40;;;21.40;99.90;;;;;;4978290;28;20139;-82
2021/06/22 11:50:30;;;;;;;1.42;1.00;;;21.40;99.90;;;;;;5012566;28;20065;-83
2021/06/22 11:53:04;;;;;;;0.90;0.90;;;21.50;99.90;;;;;;4994844;28;20057;-83
2021/06/22 11:55:40;;;;;;;2.67;1.13;;;21.70;99.90;;;;;;5012241;28;20133;-83
2021/06/22 11:58:07;;;;;;;1.45;1.20;;;21.70;99.90;;;;;;5012364;28;20052;-85
2021/06/22 12:00:34;;;;;;;1.33;1.30;;;21.80;99.90;;;;;;5012384;28;20408;-83
2021/06/22 12:03:03;;;;;;;1.88;1.70;;;21.90;99.90;;;;;;4994815;28;20129;-83
2021/06/22 12:05:32;;;;;;;1.85;1.17;;;22.20;99.90;;;;;;4994660;28;20054;-83
2021/06/22 12:08:06;;;;;;;3.53;1.40;;;22.40;99.90;;;;;;5012608;28;20107;-83
2021/06/22 12:10:39;;;;;;;1.50;1.40;;;22.20;99.90;;;;;;4995154;28;20058;-82
2021/06/22 12:13:07;;;;;;;1.58;1.10;;;22.20;99.90;;;;;;4993760;28;20100;-82
2021/06/22 12:15:40;;;;;;;1.95;1.13;;;22.40;99.90;;;;;;5012202;28;20057;-82
2021/06/22 12:18:08;;;;;;;1.00;1.00;;;22.50;99.90;;;;;;5021030;28;20391;-84
2021/06/22 12:20:40;;;;;;;1.70;1.13;;;22.40;99.90;;;;;;5022666;28;20045;-84
2021/06/22 12:23:12;;;;;;;0.93;0.93;;;22.00;99.90;;;;;;5003534;28;20051;-82
2021/06/22 12:25:53;;;;;;;1.20;1.10;;;22.10;99.90;;;;;;5019417;28;20045;-82
2021/06/22 12:28:22;;;;;;;1.20;1.20;;;22.50;99.90;;;;;;4997944;28;20140;-82
2021/06/22 12:31:00;;;;;;;1.10;1.00;;;22.70;99.90;;;;;;4995976;28;20136;-82
2021/06/22 12:33:30;;;;;;;2.60;1.00;;;22.70;99.90;;;;;;4998407;28;20050;-83
2021/06/22 12:36:02;;;;;;;0.90;0.90;;;23.10;99.90;;;;;;4998386;28;20065;-82
2021/06/22 12:38:29;;;;;;;1.15;1.00;;;23.40;99.90;;;;;;5015654;28;20048;-83
2021/06/22 12:40:58;;;;;;;1.40;1.30;;;23.30;99.90;;;;;;4998163;28;20050;-83
2021/06/22 12:43:49;;;;;;;1.67;1.10;;;23.20;99.90;;;;;;5015440;28;20049;-83
2021/06/22 12:46:21;;;;;;;2.15;1.40;;;23.20;99.90;;;;;;4998288;28;20050;-84
2021/06/22 12:49:01;;;;;;;1.40;1.20;;;23.00;99.90;;;;;;5015669;28;20072;-83
2021/06/22 12:51:36;;;;;;;3.20;1.02;;;23.00;99.90;;;;;;4998247;28;20074;-82
2021/06/22 12:54:05;;;;;;;3.53;1.25;;;23.30;99.90;;;;;;4998290;28;20060;-82
2021/06/22 12:56:49;;;;;;;1.48;1.38;;;23.00;99.90;;;;;;4998114;28;20046;-82
2021/06/22 12:59:20;;;;;;;1.67;1.30;;;23.30;99.90;;;;;;5015162;28;20064;-82
2021/06/22 13:01:50;;;;;;;2.97;1.77;;;23.20;99.90;;;;;;4998293;28;20133;-89